Time;durP1;ratioP1;P1;durP2;ratioP2;P2;SDS_P1;SDS_P2;PMS_P1;PMS_P2;Temp;Humidity;BMP_temperature;BMP_pressure;BME280_temperature;BME280_humidity;BME280_pressure;Samples;Min_cycle;Max_cycle;Signal;HPM_P1;HPM_P2
2022/03/29 00:02:01;;;;;;;23.55;11.73;;;;;;;10.55;47.11;99780.97;10291776;28;20086;-74
2022/03/29 00:07:03;;;;;;;20.08;11.60;;;;;;;10.46;47.52;99781.56;10262620;28;20054;-74
2022/03/29 00:12:05;;;;;;;19.65;12.07;;;;;;;10.39;47.44;99781.09;10264186;28;20121;-75
2022/03/29 00:17:07;;;;;;;19.40;11.43;;;;;;;10.35;47.65;99778.75;10265127;28;20121;-74
2022/03/29 00:22:09;;;;;;;15.98;11.52;;;;;;;10.38;47.65;99766.31;10277236;28;20521;-74
2022/03/29 00:27:11;;;;;;;18.75;11.60;;;;;;;10.39;47.69;99761.94;10270659;28;20149;-74
2022/03/29 00:32:13;;;;;;;18.80;11.35;;;;;;;10.44;47.69;99757.25;10287275;28;20493;-74
2022/03/29 00:37:14;;;;;;;21.67;11.82;;;;;;;10.41;47.75;99750.47;10270497;28;20078;-75
2022/03/29 00:42:16;;;;;;;21.33;11.43;;;;;;;10.41;47.88;99744.38;10260607;28;20058;-74
2022/03/29 00:47:18;;;;;;;18.27;11.68;;;;;;;10.39;48.06;99748.88;10272863;28;20485;-74
2022/03/29 00:52:20;;;;;;;19.40;11.27;;;;;;;10.31;48.18;99738.91;10264596;28;20145;-75
2022/03/29 00:57:22;;;;;;;21.75;11.93;;;;;;;10.32;48.35;99743.16;10264109;28;20141;-74
2022/03/29 01:02:24;;;;;;;16.50;11.25;;;;;;;10.25;48.63;99733.19;10269515;28;20161;-74
2022/03/29 01:07:27;;;;;;;17.45;10.85;;;;;;;10.18;48.83;99730.13;10271394;28;20054;-74
2022/03/29 01:12:31;;;;;;;20.35;11.73;;;;;;;10.09;49.07;99735.06;10253672;28;20710;-74
2022/03/29 01:17:40;;;;;;;16.27;10.95;;;;;;;10.03;49.34;99725.84;10269730;28;20136;-74
2022/03/29 01:22:47;;;;;;;20.63;11.57;;;;;;;9.96;49.51;99723.66;10268935;28;20066;-74
2022/03/29 01:27:52;;;;;;;19.50;12.05;;;;;;;9.95;49.56;99714.97;10269694;28;20054;-74
2022/03/29 01:32:54;;;;;;;17.10;11.85;;;;;;;10.01;49.49;99708.56;10278219;28;20501;-74
2022/03/29 01:37:56;;;;;;;15.45;11.07;;;;;;;9.88;49.73;99708.47;10281165;28;20086;-74
2022/03/29 01:42:59;;;;;;;22.83;12.05;;;;;;;9.84;50.02;99704.38;10287101;28;20128;-74
2022/03/29 01:48:01;;;;;;;18.42;11.80;;;;;;;9.74;50.21;99698.00;10258340;28;20157;-74
2022/03/29 01:53:03;;;;;;;24.17;11.90;;;;;;;9.68;50.44;99693.16;10264052;28;20221;-74
2022/03/29 01:58:05;;;;;;;20.20;12.32;;;;;;;9.61;50.59;99686.56;10259162;28;20603;-74
2022/03/29 02:03:09;;;;;;;20.92;11.60;;;;;;;9.61;50.69;99682.19;10280193;28;20145;-74
2022/03/29 02:08:11;;;;;;;23.73;12.48;;;;;;;9.65;50.62;99675.88;10289635;28;20077;-74
2022/03/29 02:13:14;;;;;;;20.05;12.90;;;;;;;9.65;50.67;99675.88;10286970;28;20512;-74
2022/03/29 02:18:15;;;;;;;17.20;11.95;;;;;;;9.67;50.78;99669.75;10272400;28;20149;-74
2022/03/29 02:23:18;;;;;;;22.55;12.25;;;;;;;9.62;50.83;99667.38;10287192;28;20555;-74
2022/03/29 02:28:19;;;;;;;20.45;12.77;;;;;;;9.63;50.81;99659.44;10268823;28;20058;-74
2022/03/29 02:33:21;;;;;;;20.00;12.23;;;;;;;9.58;50.93;99666.69;10290894;28;20136;-74
2022/03/29 02:38:23;;;;;;;19.40;12.13;;;;;;;9.59;50.99;99663.19;10278425;28;20101;-74
2022/03/29 02:43:26;;;;;;;21.73;13.23;;;;;;;9.46;51.36;99662.22;10258890;28;20476;-74
2022/03/29 02:48:28;;;;;;;22.63;13.45;;;;;;;9.50;51.26;99655.06;10273724;28;20054;-74
2022/03/29 02:53:29;;;;;;;22.67;12.68;;;;;;;9.45;51.36;99644.03;10283892;28;20902;-74
2022/03/29 02:58:31;;;;;;;21.83;13.23;;;;;;;9.45;51.28;99639.66;10277769;28;20047;-74
2022/03/29 03:03:33;;;;;;;23.88;14.52;;;;;;;9.48;51.19;99643.88;10271226;28;20125;-74
2022/03/29 03:08:35;;;;;;;21.33;13.07;;;;;;;9.29;51.51;99632.84;10267351;28;20070;-75
2022/03/29 03:13:36;;;;;;;20.88;13.63;;;;;;;9.23;51.71;99628.81;10265058;28;20057;-74
2022/03/29 03:18:38;;;;;;;21.73;13.27;;;;;;;9.10;52.24;99622.63;10288037;28;20504;-74
2022/03/29 03:23:40;;;;;;;20.45;13.77;;;;;;;9.05;52.43;99627.31;10281073;28;20572;-74
2022/03/29 03:28:42;;;;;;;20.75;13.10;;;;;;;9.11;52.36;99624.34;10265498;28;20524;-75
2022/03/29 03:33:44;;;;;;;20.35;13.15;;;;;;;9.05;52.47;99618.63;10297706;28;20077;-75
2022/03/29 03:38:46;;;;;;;18.75;12.57;;;;;;;9.06;52.61;99615.91;10270940;28;20078;-74
2022/03/29 03:43:48;;;;;;;25.05;14.20;;;;;;;9.07;52.57;99609.78;10265476;28;20164;-74
2022/03/29 03:48:50;;;;;;;22.65;14.18;;;;;;;9.02;52.52;99608.34;10273032;28;20129;-74
2022/03/29 03:53:51;;;;;;;20.48;13.45;;;;;;;8.99;52.53;99604.19;10246454;28;20109;-74
2022/03/29 03:58:59;;;;;;;22.38;13.07;;;;;;;8.93;53.12;99601.94;10261290;28;20074;-74
2022/03/29 04:04:01;;;;;;;23.10;14.68;;;;;;;8.81;52.84;99594.81;10264890;28;20141;-74
2022/03/29 04:09:03;;;;;;;21.23;13.68;;;;;;;8.65;53.41;99588.78;10281131;28;20110;-74
2022/03/29 04:14:05;;;;;;;21.42;14.25;;;;;;;8.53;53.59;99590.34;10264446;28;20078;-74
2022/03/29 04:19:06;;;;;;;25.27;14.55;;;;;;;8.57;53.49;99576.19;10265420;28;20133;-74
2022/03/29 04:24:09;;;;;;;25.88;14.45;;;;;;;8.59;53.59;99576.94;10264643;28;20138;-74
2022/03/29 04:29:11;;;;;;;25.48;14.88;;;;;;;8.39;53.94;99574.63;10274879;28;20062;-74
2022/03/29 04:34:13;;;;;;;24.52;14.70;;;;;;;8.26;54.07;99567.59;10292127;28;20058;-74
2022/03/29 04:39:15;;;;;;;24.67;15.50;;;;;;;8.26;54.25;99570.22;10275092;28;20249;-74
2022/03/29 04:44:17;;;;;;;22.30;14.70;;;;;;;8.27;54.17;99564.06;10272171;28;20074;-74
2022/03/29 04:49:19;;;;;;;24.13;14.45;;;;;;;8.23;54.25;99565.16;10271693;28;20082;-75
2022/03/29 04:54:20;;;;;;;25.65;14.98;;;;;;;8.21;54.42;99557.44;10272512;28;20140;-75
2022/03/29 04:59:22;;;;;;;24.08;14.65;;;;;;;8.17;54.50;99550.72;10271428;28;20981;-74
2022/03/29 05:04:24;;;;;;;21.42;13.55;;;;;;;8.04;54.94;99549.69;10254136;28;20203;-74
2022/03/29 05:09:26;;;;;;;23.83;14.88;;;;;;;7.78;55.48;99543.31;10282049;28;20082;-74
2022/03/29 05:14:27;;;;;;;22.08;14.90;;;;;;;7.83;55.52;99543.06;10253487;28;20519;-75
2022/03/29 05:19:29;;;;;;;27.95;17.10;;;;;;;7.90;55.46;99545.25;10271133;28;20068;-75
2022/03/29 05:24:31;;;;;;;24.02;15.48;;;;;;;7.91;55.24;99553.91;10281562;28;20393;-75
2022/03/29 05:29:33;;;;;;;26.58;15.75;;;;;;;7.93;55.34;99552.06;10279942;28;20094;-75
2022/03/29 05:34:34;;;;;;;26.75;15.63;;;;;;;7.95;55.35;99552.81;10281069;28;20121;-75
2022/03/29 05:39:36;;;;;;;23.00;14.70;;;;;;;8.00;55.54;99542.97;10283801;28;20489;-75
2022/03/29 05:44:38;;;;;;;22.15;14.93;;;;;;;8.01;55.35;99545.50;10287503;28;20086;-74
2022/03/29 05:49:40;;;;;;;26.25;15.95;;;;;;;8.02;55.75;99548.91;10282927;28;20481;-74
2022/03/29 05:54:45;;;;;;;26.13;15.75;;;;;;;8.15;55.52;99547.38;10289264;28;20038;-74
2022/03/29 05:59:46;;;;;;;27.08;16.00;;;;;;;8.31;55.07;99548.19;10271641;28;20652;-74
2022/03/29 06:04:48;;;;;;;29.40;16.98;;;;;;;8.40;54.95;99552.03;10252187;28;20145;-75
2022/03/29 06:09:50;;;;;;;24.63;15.90;;;;;;;8.46;54.97;99557.75;10267556;28;20051;-75
2022/03/29 06:14:52;;;;;;;25.10;15.80;;;;;;;8.63;54.69;99548.94;10285894;28;20460;-75
2022/03/29 06:19:54;;;;;;;29.58;16.80;;;;;;;8.75;54.22;99554.28;10268214;28;20074;-75
2022/03/29 06:24:58;;;;;;;26.85;17.30;;;;;;;8.83;54.45;99552.06;10267315;28;20135;-74
2022/03/29 06:30:00;;;;;;;25.58;15.95;;;;;;;9.04;53.95;99554.34;10264538;28;20046;-75
2022/03/29 06:35:04;;;;;;;25.23;17.42;;;;;;;9.17;53.62;99561.34;10264832;28;20090;-74
2022/03/29 06:40:08;;;;;;;25.15;16.88;;;;;;;9.34;53.48;99563.78;10284383;28;20059;-74
2022/03/29 06:45:11;;;;;;;30.23;17.85;;;;;;;9.46;53.03;99568.25;10271734;28;20053;-74
2022/03/29 06:50:12;;;;;;;26.92;18.13;;;;;;;9.52;52.98;99570.47;10275979;28;20054;-75
2022/03/29 06:55:18;;;;;;;30.08;19.13;;;;;;;9.53;53.28;99573.94;10289608;28;20054;-76
2022/03/29 07:00:20;;;;;;;29.77;18.08;;;;;;;9.85;52.36;99569.41;10269367;28;20054;-75
2022/03/29 07:05:23;;;;;;;28.90;17.88;;;;;;;10.18;51.83;99567.25;10270020;28;21354;-75
2022/03/29 07:15:48;;;;;;;31.70;18.63;;;;;;;10.23;51.81;99558.19;10263243;28;20343;-75
2022/03/29 07:20:50;;;;;;;32.03;20.27;;;;;;;10.32;51.56;99561.97;10279842;28;20063;-78
2022/03/29 07:25:52;;;;;;;30.52;17.85;;;;;;;10.49;50.79;99567.81;10287365;28;20505;-78
2022/03/29 07:30:53;;;;;;;32.17;19.30;;;;;;;10.47;51.21;99567.06;10267020;28;20148;-79
2022/03/29 07:35:55;;;;;;;29.92;19.27;;;;;;;10.69;50.73;99563.88;10268868;28;20050;-79
2022/03/29 07:40:57;;;;;;;34.70;19.15;;;;;;;11.12;50.36;99551.41;10290557;28;20046;-79
2022/03/29 07:45:59;;;;;;;33.65;19.58;;;;;;;11.47;49.48;99562.09;10284151;28;20134;-79
2022/03/29 07:51:01;;;;;;;31.48;19.65;;;;;;;11.69;49.07;99559.63;10287173;28;20069;-79
2022/03/29 07:56:04;;;;;;;33.95;19.23;;;;;;;11.85;48.69;99563.69;10283163;28;20567;-79
2022/03/29 08:01:06;;;;;;;31.58;20.85;;;;;;;12.00;47.94;99551.28;10285535;28;20054;-78
2022/03/29 08:06:34;;;;;;;39.72;21.67;;;;;;;12.26;47.17;99552.03;10285655;28;20059;-78
2022/03/29 08:11:38;;;;;;;39.70;23.27;;;;;;;12.13;47.07;99546.81;10283038;28;20058;-79
2022/03/29 08:16:41;;;;;;;38.28;21.85;;;;;;;12.40;46.58;99539.63;10286752;28;20138;-79
2022/03/29 08:21:49;;;;;;;34.70;21.55;;;;;;;12.75;45.89;99532.59;10295517;28;20054;-78
2022/03/29 08:26:54;;;;;;;34.97;21.00;;;;;;;12.75;45.43;99534.38;10299623;28;20061;-80
2022/03/29 08:32:02;;;;;;;31.80;19.90;;;;;;;12.95;45.14;99537.19;10290016;28;20062;-79
2022/03/29 08:37:05;;;;;;;27.45;19.52;;;;;;;13.17;44.58;99536.38;10284261;28;20068;-80
2022/03/29 08:42:12;;;;;;;27.40;18.40;;;;;;;13.18;43.58;99537.22;10287386;28;20113;-78
2022/03/29 08:47:17;;;;;;;29.55;18.75;;;;;;;13.46;43.45;99536.78;10281810;28;20058;-77
2022/03/29 08:52:20;;;;;;;25.58;16.73;;;;;;;13.50;42.91;99532.97;10267711;28;20798;-77
2022/03/29 08:57:22;;;;;;;27.13;17.95;;;;;;;13.45;42.69;99519.38;10259861;28;20063;-77
2022/03/29 09:02:25;;;;;;;31.98;15.95;;;;;;;13.47;42.66;99505.19;10290244;28;20046;-77
2022/03/29 09:07:44;;;;;;;25.92;16.33;;;;;;;13.66;42.45;99502.75;10289461;28;20057;-78
2022/03/29 09:12:47;;;;;;;26.27;16.77;;;;;;;13.95;41.94;99496.97;10283559;28;20444;-78
2022/03/29 09:17:48;;;;;;;25.70;16.77;;;;;;;14.29;41.71;99499.38;10281196;28;20435;-78
2022/03/29 09:22:52;;;;;;;27.85;16.05;;;;;;;14.61;40.83;99495.94;10284028;28;20050;-78
2022/03/29 09:28:14;;;;;;;20.83;14.82;;;;;;;14.34;40.33;99504.25;10267154;28;20065;-77
2022/03/29 09:33:31;;;;;;;25.52;16.20;;;;;;;14.34;40.16;99501.63;10271925;28;20134;-78
2022/03/29 09:38:40;;;;;;;23.23;15.13;;;;;;;14.72;40.45;99487.94;10290897;28;20082;-78
2022/03/29 09:43:42;;;;;;;27.33;16.17;;;;;;;14.25;40.69;99484.78;10275837;28;20054;-78
2022/03/29 09:48:44;;;;;;;21.92;15.05;;;;;;;14.43;40.31;99474.59;10273204;28;20179;-78
2022/03/29 09:53:50;;;;;;;21.00;15.35;;;;;;;14.42;40.60;99460.59;10286700;28;20051;-78
2022/03/29 09:59:10;;;;;;;26.67;15.90;;;;;;;14.66;40.01;99443.72;10290107;28;20086;-77
2022/03/29 10:04:13;;;;;;;22.80;14.63;;;;;;;15.11;39.63;99437.19;10282828;28;20063;-78
2022/03/29 10:09:26;;;;;;;25.80;15.75;;;;;;;15.08;38.60;99429.56;10288975;28;20058;-78
2022/03/29 10:14:28;;;;;;;21.83;14.88;;;;;;;15.16;39.44;99429.72;10285732;28;20575;-78
2022/03/29 10:19:30;;;;;;;22.33;14.88;;;;;;;15.35;39.15;99406.06;10286446;28;20449;-78
2022/03/29 10:24:35;;;;;;;25.50;15.07;;;;;;;15.86;38.27;99413.84;10286178;28;20570;-78
2022/03/29 10:29:40;;;;;;;22.25;13.98;;;;;;;16.05;37.70;99401.50;10267803;28;20058;-78
2022/03/29 10:35:01;;;;;;;15.13;11.68;;;;;;;15.57;35.51;99397.97;10293678;28;20100;-78
2022/03/29 10:40:05;;;;;;;15.10;10.45;;;;;;;15.57;36.04;99384.78;10280938;28;20508;-78
2022/03/29 10:45:22;;;;;;;15.43;11.32;;;;;;;15.84;36.01;99371.78;10291284;28;20055;-78
2022/03/29 10:50:57;;;;;;;20.30;11.77;;;;;;;15.90;34.58;99365.97;10284237;28;20053;-78
2022/03/29 10:56:19;;;;;;;21.23;10.73;;;;;;;16.03;35.93;99358.59;10284448;28;20101;-78
2022/03/29 11:02:06;;;;;;;15.77;10.80;;;;;;;16.35;34.65;99352.16;10283883;28;20059;-77
2022/03/29 11:07:12;;;;;;;18.52;10.88;;;;;;;16.33;34.52;99341.75;10205709;29;21157;-77
2022/03/29 11:12:45;;;;;;;21.23;11.80;;;;;;;16.05;34.85;99335.56;10198374;28;20055;-78
2022/03/29 11:17:47;;;;;;;19.13;12.25;;;;;;;16.02;35.63;99335.00;10208329;29;21080;-78
2022/03/29 11:22:49;;;;;;;19.23;13.20;;;;;;;16.14;36.50;99318.88;10203080;28;20056;-78
2022/03/29 11:27:52;;;;;;;24.52;13.75;;;;;;;16.41;35.55;99317.28;10206938;29;20055;-78
2022/03/29 11:32:55;;;;;;;20.60;12.82;;;;;;;16.51;34.16;99310.22;10214102;28;20106;-78
2022/03/29 11:38:23;;;;;;;17.67;12.00;;;;;;;16.45;34.70;99306.34;10203260;28;20055;-78
2022/03/29 11:43:26;;;;;;;17.92;12.07;;;;;;;16.57;34.34;99289.34;10203327;28;20102;-78
2022/03/29 11:48:27;;;;;;;19.77;12.13;;;;;;;16.95;34.07;99288.34;10208518;29;20138;-78
2022/03/29 11:59:54;;;;;;;20.30;13.00;;;;;;;16.71;33.33;99264.28;10196721;29;20043;-78
2022/03/29 12:04:58;;;;;;;22.50;13.43;;;;;;;16.56;33.52;99252.53;10256431;28;20062;-78
2022/03/29 12:10:00;;;;;;;24.75;13.85;;;;;;;16.56;33.72;99242.81;10277196;28;20157;-78
2022/03/29 12:15:07;;;;;;;20.55;13.25;;;;;;;16.56;34.67;99242.81;10275189;28;20066;-78
2022/03/29 12:20:09;;;;;;;19.02;12.60;;;;;;;16.90;34.71;99233.31;10279113;28;20758;-78
2022/03/29 12:25:11;;;;;;;17.42;12.35;;;;;;;16.90;33.69;99224.56;10279111;28;20090;-78
2022/03/29 12:36:13;;;;;;;17.83;12.15;;;;;;;17.36;32.81;99203.28;10278807;28;20440;-78
2022/03/29 12:41:34;;;;;;;18.45;11.95;;;;;;;17.19;32.38;99195.28;10281171;28;20516;-78
2022/03/29 12:46:37;;;;;;;;;;;;;;;17.10;32.44;99191.72;10284086;28;20070;-78
2022/03/29 12:51:40;;;;;;;17.50;10.45;;;;;;;17.61;31.94;99181.31;10288239;28;19980;-78
2022/03/29 12:56:47;;;;;;;17.58;10.70;;;;;;;17.75;31.23;99175.47;10275435;28;20050;-78
2022/03/29 13:01:48;;;;;;;16.23;10.23;;;;;;;17.91;31.16;99158.03;10294906;28;20066;-78
2022/03/29 13:06:53;;;;;;;18.80;10.77;;;;;;;18.15;30.95;99153.72;10293560;28;20050;-78
2022/03/29 13:12:14;;;;;;;16.30;10.73;;;;;;;17.74;30.59;99149.16;10284249;28;20619;-78
2022/03/29 13:17:16;;;;;;;13.80;9.80;;;;;;;17.69;31.69;99138.22;10287452;28;20390;-78
2022/03/29 13:22:18;;;;;;;13.43;9.13;;;;;;;17.64;30.98;99133.41;10274959;28;20062;-77
2022/03/29 13:27:20;;;;;;;15.60;10.10;;;;;;;17.41;31.29;99129.63;10292529;28;20459;-78
2022/03/29 13:32:24;;;;;;;17.48;10.40;;;;;;;17.23;31.63;99118.22;10269055;28;20077;-78
2022/03/29 13:37:26;;;;;;;15.68;9.43;;;;;;;17.49;32.03;99108.53;10295162;28;20109;-78
2022/03/29 13:42:27;;;;;;;18.25;11.10;;;;;;;17.70;31.63;99095.78;10273813;28;20577;-78
2022/03/29 13:47:29;;;;;;;16.75;10.48;;;;;;;17.77;31.39;99091.50;10290085;28;20054;-78
2022/03/29 13:52:34;;;;;;;17.35;10.00;;;;;;;17.64;31.34;99080.53;10282711;28;20050;-78
2022/03/29 13:57:35;;;;;;;14.50;9.07;;;;;;;17.71;31.58;99076.25;10284435;28;20050;-78
2022/03/29 14:02:37;;;;;;;13.93;9.07;;;;;;;17.67;30.65;99072.28;10279438;28;20058;-78
2022/03/29 14:07:39;;;;;;;19.63;9.52;;;;;;;17.72;30.56;99064.72;10284133;28;20133;-77
2022/03/29 14:12:41;;;;;;;15.68;9.27;;;;;;;17.59;30.82;99068.75;10274718;28;20094;-78
2022/03/29 14:17:43;;;;;;;15.27;9.05;;;;;;;17.46;30.70;99055.97;10280215;28;20440;-78
2022/03/29 14:22:45;;;;;;;13.82;8.45;;;;;;;17.68;29.96;99050.16;10280815;28;20149;-78
2022/03/29 14:27:47;;;;;;;11.82;7.80;;;;;;;17.40;30.19;99042.53;10269950;28;20058;-78
2022/03/29 14:32:49;;;;;;;13.45;8.18;;;;;;;17.69;30.00;99038.56;10287915;28;20053;-78
2022/03/29 14:37:50;;;;;;;14.02;7.57;;;;;;;17.80;30.19;99025.06;10286773;28;20248;-78
2022/03/29 14:42:52;;;;;;;14.60;8.13;;;;;;;17.88;30.80;99024.25;10289258;28;20580;-78
2022/03/29 14:47:55;;;;;;;11.20;6.97;;;;;;;17.81;30.31;99015.31;10279985;28;20148;-78
2022/03/29 14:53:17;;;;;;;11.85;7.45;;;;;;;17.77;30.09;99014.00;10274364;28;20039;-78
2022/03/29 14:58:19;;;;;;;15.73;8.10;;;;;;;17.58;30.21;99006.28;10292094;28;20097;-78
2022/03/29 15:03:20;;;;;;;10.70;6.95;;;;;;;17.59;30.90;99002.66;10289295;28;20913;-78
2022/03/29 15:08:22;;;;;;;10.65;6.97;;;;;;;17.38;30.45;99004.88;10286546;28;20144;-78
2022/03/29 15:13:24;;;;;;;11.07;6.63;;;;;;;17.50;30.11;98999.16;10281380;28;20058;-78
2022/03/29 15:18:26;;;;;;;13.25;6.15;;;;;;;17.46;29.97;98991.69;10264319;28;20464;-78
2022/03/29 15:23:28;;;;;;;12.93;6.35;;;;;;;17.38;30.00;98983.72;10284756;28;20140;-78
2022/03/29 15:28:30;;;;;;;9.63;5.07;;;;;;;17.30;29.80;98976.53;10287932;28;20152;-78
2022/03/29 15:33:31;;;;;;;8.57;5.20;;;;;;;17.58;30.24;98975.41;10284106;28;20449;-78
2022/03/29 15:38:35;;;;;;;12.52;5.50;;;;;;;17.51;29.75;98965.59;10279848;28;20109;-77
2022/03/29 15:43:36;;;;;;;10.40;4.78;;;;;;;17.50;29.94;98969.25;10277143;28;20058;-78
2022/03/29 15:48:38;;;;;;;9.38;4.90;;;;;;;17.30;29.68;98960.66;10278583;28;20054;-77
2022/03/29 15:53:40;;;;;;;8.32;4.70;;;;;;;17.26;30.33;98956.69;10267432;28;20153;-78
2022/03/29 15:58:42;;;;;;;12.00;5.15;;;;;;;17.03;30.13;98958.22;10276609;28;20455;-78
2022/03/29 16:03:50;;;;;;;11.15;5.10;;;;;;;16.93;30.61;98954.84;10281247;28;20057;-78
2022/03/29 16:08:53;;;;;;;9.20;5.25;;;;;;;17.07;30.55;98948.16;10275453;28;20061;-78
2022/03/29 16:13:54;;;;;;;10.07;4.82;;;;;;;16.93;29.56;98946.94;10278355;28;20596;-78
2022/03/29 16:18:56;;;;;;;10.35;5.10;;;;;;;16.68;29.35;98931.91;10264973;28;20054;-78
2022/03/29 16:23:58;;;;;;;10.07;4.78;;;;;;;16.64;30.19;98930.56;10283667;28;20046;-78
2022/03/29 16:29:01;;;;;;;7.47;4.63;;;;;;;16.62;29.69;98927.22;10277917;28;20117;-78
2022/03/29 16:34:03;;;;;;;8.32;4.38;;;;;;;16.68;30.14;98924.81;10287748;28;20117;-78
2022/03/29 16:39:07;;;;;;;8.52;4.07;;;;;;;16.71;30.36;98921.03;10289269;28;20137;-78
2022/03/29 16:44:09;;;;;;;8.77;4.07;;;;;;;16.65;30.78;98900.53;10292787;28;20089;-77
2022/03/29 16:49:11;;;;;;;7.38;3.63;;;;;;;16.51;31.25;98906.38;10291833;28;20086;-77
2022/03/29 16:54:13;;;;;;;9.80;4.45;;;;;;;16.47;31.80;98902.41;10292288;28;20046;-78
2022/03/29 16:59:15;;;;;;;10.13;5.20;;;;;;;16.40;32.85;98907.41;10285510;28;20565;-79
2022/03/29 17:04:17;;;;;;;14.30;5.20;;;;;;;16.30;33.38;98909.31;10289404;28;21121;-78
2022/03/29 17:09:19;;;;;;;10.57;5.53;;;;;;;16.21;32.37;98910.22;10288207;28;20066;-81
2022/03/29 17:14:22;;;;;;;10.18;5.68;;;;;;;16.11;32.21;98905.03;10280963;28;20050;-77
2022/03/29 17:25:47;;;;;;;14.85;6.47;;;;;;;15.52;33.50;98907.38;10285875;28;20046;-77
2022/03/29 17:30:50;;;;;;;12.18;5.78;;;;;;;15.35;33.45;98902.84;10283264;28;20129;-78
2022/03/29 17:35:52;;;;;;;10.85;5.35;;;;;;;15.27;33.47;98895.69;10287839;28;20045;-78
2022/03/29 17:40:54;;;;;;;14.63;8.38;;;;;;;15.22;33.73;98905.00;10262502;28;20082;-78
2022/03/29 17:45:58;;;;;;;13.80;9.80;;;;;;;15.17;33.75;98900.16;10285834;28;20051;-78
2022/03/29 17:51:00;;;;;;;16.25;8.13;;;;;;;14.99;34.93;98901.91;10279542;28;20061;-78
2022/03/29 17:56:03;;;;;;;13.27;8.38;;;;;;;14.83;35.64;98895.59;10282894;28;20069;-78
2022/03/29 18:01:08;;;;;;;15.07;9.13;;;;;;;14.68;36.18;98895.22;10283379;28;20523;-77
2022/03/29 18:06:12;;;;;;;16.67;8.30;;;;;;;14.59;36.27;98893.44;10284430;28;20078;-77
2022/03/29 18:11:15;;;;;;;11.43;7.82;;;;;;;14.53;36.66;98891.38;10292416;28;20074;-77
2022/03/29 18:16:16;;;;;;;13.35;8.07;;;;;;;14.40;37.26;98888.19;10292722;28;20077;-77
2022/03/29 18:21:20;;;;;;;12.80;6.63;;;;;;;14.31;38.23;98886.38;10274323;28;20425;-77
2022/03/29 18:26:27;;;;;;;15.25;7.72;;;;;;;14.23;38.02;98886.25;10262847;28;20042;-77
2022/03/29 18:31:29;;;;;;;10.85;6.10;;;;;;;14.16;37.48;98888.63;10270565;28;20061;-74
2022/03/29 18:36:31;;;;;;;10.65;5.50;;;;;;;14.03;38.22;98890.69;10256716;28;20050;-74
2022/03/29 18:41:37;;;;;;;12.10;5.60;;;;;;;13.91;38.24;98886.53;10279157;28;20137;-74
2022/03/29 18:46:38;;;;;;;10.77;5.38;;;;;;;13.82;38.32;98882.09;10286188;28;20134;-74
2022/03/29 18:51:40;;;;;;;9.57;4.70;;;;;;;13.77;38.67;98882.53;10258577;28;20560;-74
2022/03/29 18:56:42;;;;;;;14.07;5.75;;;;;;;13.72;39.00;98889.13;10285349;28;20050;-74
2022/03/29 19:01:44;;;;;;;7.75;4.43;;;;;;;13.66;39.25;98894.94;10269978;28;20470;-74
2022/03/29 19:06:46;;;;;;;11.43;6.22;;;;;;;13.61;39.14;98886.66;10275094;28;20141;-74
2022/03/29 19:11:48;;;;;;;9.30;4.53;;;;;;;13.33;39.75;98900.53;10271938;28;20145;-74
2022/03/29 19:16:50;;;;;;;11.63;4.75;;;;;;;13.08;40.86;98899.19;10275701;28;20065;-74
2022/03/29 19:21:52;;;;;;;7.22;4.65;;;;;;;13.09;41.54;98900.84;10283263;28;20130;-74
2022/03/29 19:26:54;;;;;;;12.30;5.70;;;;;;;12.92;41.74;98907.53;10276001;28;20055;-74
2022/03/29 19:31:55;;;;;;;14.85;6.25;;;;;;;12.67;41.81;98900.09;10274398;28;20051;-74
2022/03/29 19:36:58;;;;;;;10.70;5.55;;;;;;;12.63;41.96;98906.56;10289644;28;20663;-74
2022/03/29 19:42:09;;;;;;;8.00;4.97;;;;;;;12.66;41.55;98916.78;10270248;28;20144;-74
2022/03/29 19:47:17;;;;;;;11.10;4.80;;;;;;;12.44;41.60;98922.16;10274695;28;20050;-74
2022/03/29 19:52:20;;;;;;;9.02;4.00;;;;;;;12.28;40.84;98921.78;10248941;28;20924;-74
2022/03/29 19:57:24;;;;;;;10.40;4.60;;;;;;;12.32;41.13;98931.03;10275658;28;20731;-75
2022/03/29 20:02:26;;;;;;;7.82;4.70;;;;;;;12.44;41.00;98931.81;10289702;28;20085;-74
2022/03/29 20:07:28;;;;;;;8.45;4.70;;;;;;;12.59;41.14;98935.78;10264107;28;20064;-74
2022/03/29 20:12:30;;;;;;;13.65;5.78;;;;;;;12.53;42.10;98945.00;10273642;28;20536;-74
2022/03/29 20:17:33;;;;;;;10.60;6.35;;;;;;;12.54;41.05;98949.28;10264417;28;20106;-74
2022/03/29 20:22:35;;;;;;;14.80;5.57;;;;;;;12.57;41.93;98954.28;10265192;28;20114;-74
2022/03/29 20:27:55;;;;;;;8.83;5.37;;;;;;;12.55;42.91;98944.88;10270459;28;20512;-75
2022/03/29 20:33:12;;;;;;;8.85;4.70;;;;;;;12.57;42.83;98938.56;10272449;28;20144;-74
2022/03/29 20:38:14;;;;;;;9.15;4.53;;;;;;;12.53;42.52;98944.19;10264507;28;20233;-74
2022/03/29 20:43:15;;;;;;;13.23;7.32;;;;;;;12.54;41.26;98943.19;10272618;28;20058;-74
2022/03/29 20:48:20;;;;;;;10.00;6.55;;;;;;;12.56;41.40;98946.53;10266107;28;20219;-75
2022/03/29 20:53:22;;;;;;;11.13;5.40;;;;;;;12.53;41.80;98942.38;10276139;28;20554;-74
2022/03/29 20:58:25;;;;;;;11.30;6.32;;;;;;;12.46;41.93;98946.47;10247193;28;20083;-75
2022/03/29 21:03:27;;;;;;;11.18;5.05;;;;;;;12.35;42.40;98938.69;10263811;28;20051;-74
2022/03/29 21:08:28;;;;;;;12.68;4.90;;;;;;;12.23;42.88;98938.81;10258820;28;20137;-74
2022/03/29 21:13:32;;;;;;;8.75;4.90;;;;;;;12.26;43.02;98936.75;10280018;28;20066;-74
2022/03/29 21:18:34;;;;;;;10.35;5.90;;;;;;;12.26;42.95;98934.13;10281308;28;20779;-74
2022/03/29 21:23:37;;;;;;;10.75;7.20;;;;;;;12.30;42.39;98935.59;10280596;28;21068;-74
2022/03/29 21:28:39;;;;;;;14.77;8.35;;;;;;;12.20;41.89;98929.41;10298505;28;21057;-75
2022/03/29 21:33:41;;;;;;;17.23;10.75;;;;;;;12.12;41.03;98930.03;10281115;28;20066;-74
2022/03/29 21:38:43;;;;;;;16.95;10.57;;;;;;;12.09;41.29;98922.41;10257064;28;20145;-74
2022/03/29 21:43:45;;;;;;;15.38;9.30;;;;;;;12.03;42.11;98922.91;10274107;28;20152;-74
2022/03/29 21:48:47;;;;;;;18.50;10.18;;;;;;;11.96;41.23;98927.00;10291134;28;20061;-74
2022/03/29 21:53:48;;;;;;;15.15;9.90;;;;;;;11.99;41.13;98929.38;10278882;28;20111;-74
2022/03/29 21:58:50;;;;;;;16.17;10.05;;;;;;;12.05;41.69;98921.00;10273386;28;20097;-74
2022/03/29 22:03:52;;;;;;;16.33;10.50;;;;;;;12.14;41.08;98922.03;10283959;28;20102;-74
2022/03/29 22:08:54;;;;;;;14.00;10.02;;;;;;;12.15;41.96;98926.31;10289136;28;20050;-75
2022/03/29 22:13:56;;;;;;;14.68;10.27;;;;;;;12.22;43.69;98931.88;10283261;28;20617;-75
2022/03/29 22:18:58;;;;;;;14.85;9.75;;;;;;;12.23;42.87;98923.94;10286665;28;20058;-74
2022/03/29 22:23:59;;;;;;;15.48;10.10;;;;;;;12.05;43.35;98921.00;10282859;28;20829;-74
2022/03/29 22:29:02;;;;;;;13.98;10.02;;;;;;;12.07;43.38;98920.88;10282469;28;20186;-74
2022/03/29 22:34:04;;;;;;;18.83;11.85;;;;;;;12.07;46.03;98913.00;10267664;28;20489;-74
2022/03/29 22:39:05;;;;;;;20.60;13.15;;;;;;;11.95;46.01;98909.59;10284126;28;20568;-74
2022/03/29 22:44:07;;;;;;;18.38;12.80;;;;;;;11.62;45.95;98908.91;10266761;28;20650;-74
2022/03/29 22:49:10;;;;;;;20.13;14.50;;;;;;;11.19;48.13;98908.84;10267571;28;20190;-75
2022/03/29 22:54:12;;;;;;;22.10;14.40;;;;;;;10.87;48.79;98911.28;10270957;28;20061;-74
2022/03/29 22:59:15;;;;;;;21.02;14.55;;;;;;;10.69;48.66;98904.00;10280824;28;20138;-75
2022/03/29 23:04:17;;;;;;;23.42;15.25;;;;;;;10.45;50.53;98901.50;10268263;28;20469;-75
2022/03/29 23:09:19;;;;;;;22.83;16.48;;;;;;;10.15;52.01;98882.88;10275461;28;20105;-75
2022/03/29 23:14:21;;;;;;;21.02;15.75;;;;;;;10.16;53.13;98880.16;10251458;28;20470;-75
2022/03/29 23:19:23;;;;;;;27.48;18.27;;;;;;;10.23;54.27;98870.09;10270279;28;20146;-75
2022/03/29 23:24:28;;;;;;;24.85;17.65;;;;;;;10.37;55.25;98859.41;10281186;28;20050;-74
2022/03/29 23:29:31;;;;;;;24.63;16.65;;;;;;;10.43;55.07;98851.13;10278556;28;20126;-74
2022/03/29 23:34:34;;;;;;;29.02;18.48;;;;;;;10.42;55.15;98867.72;10273775;28;20046;-74